sensor_id;sensor_type;location;lat;lon;timestamp;pressure;altitude;pressure_sealevel;temperature;humidity
8703;BME280;9002;42.708;23.186;2023-08-08T00:04:19;94851.41;;;17.79;79.57
8703;BME280;9002;42.708;23.186;2023-08-08T00:06:46;94822.91;;;17.48;79.54
8703;BME280;9002;42.708;23.186;2023-08-08T00:09:19;94860.75;;;17.75;78.10
8703;BME280;9002;42.708;23.186;2023-08-08T00:11:47;94879.50;;;17.96;79.92
8703;BME280;9002;42.708;23.186;2023-08-08T00:14:14;94842.19;;;17.77;78.42
8703;BME280;9002;42.708;23.186;2023-08-08T00:16:41;94851.88;;;17.76;77.87
8703;BME280;9002;42.708;23.186;2023-08-08T00:19:48;94795.38;;;17.34;78.04
8703;BME280;9002;42.708;23.186;2023-08-08T00:22:15;94876.56;;;17.69;78.47
8703;BME280;9002;42.708;23.186;2023-08-08T00:24:42;94821.09;;;17.48;77.62
8703;BME280;9002;42.708;23.186;2023-08-08T00:27:10;94842.25;;;17.47;77.65
8703;BME280;9002;42.708;23.186;2023-08-08T00:29:40;94848.44;;;17.11;78.55
8703;BME280;9002;42.708;23.186;2023-08-08T00:32:34;94847.44;;;17.12;77.44
8703;BME280;9002;42.708;23.186;2023-08-08T00:35:01;94864.16;;;17.34;78.01
8703;BME280;9002;42.708;23.186;2023-08-08T00:37:28;94849.38;;;17.16;77.65
8703;BME280;9002;42.708;23.186;2023-08-08T00:39:55;94887.03;;;17.39;78.97
8703;BME280;9002;42.708;23.186;2023-08-08T00:42:23;94857.56;;;17.20;78.28
8703;BME280;9002;42.708;23.186;2023-08-08T00:44:53;94788.69;;;16.84;78.55
8703;BME280;9002;42.708;23.186;2023-08-08T05:03:52;95121.06;;;17.00;75.93
8703;BME280;9002;42.708;23.186;2023-08-08T05:06:19;95120.31;;;16.93;76.18
8703;BME280;9002;42.708;23.186;2023-08-08T05:08:46;95062.59;;;16.51;76.34
8703;BME280;9002;42.708;23.186;2023-08-08T05:11:16;95111.97;;;16.59;76.79
8703;BME280;9002;42.708;23.186;2023-08-08T05:14:14;95151.81;;;16.79;76.96
8703;BME280;9002;42.708;23.186;2023-08-08T05:17:01;95135.69;;;16.82;77.35
8703;BME280;9002;42.708;23.186;2023-08-08T05:19:50;95080.63;;;16.59;76.78
8703;BME280;9002;42.708;23.186;2023-08-08T05:22:17;95093.66;;;16.84;75.89
8703;BME280;9002;42.708;23.186;2023-08-08T05:24:52;95153.84;;;17.21;75.95
8703;BME280;9002;42.708;23.186;2023-08-08T05:27:19;95121.78;;;16.89;76.03
8703;BME280;9002;42.708;23.186;2023-08-08T05:29:45;95121.97;;;17.30;74.52
8703;BME280;9002;42.708;23.186;2023-08-08T05:32:12;95136.41;;;17.14;74.77
8703;BME280;9002;42.708;23.186;2023-08-08T05:34:39;95107.25;;;16.93;74.79
8703;BME280;9002;42.708;23.186;2023-08-08T05:37:12;95137.38;;;17.20;74.83
8703;BME280;9002;42.708;23.186;2023-08-08T05:39:38;95125.44;;;17.06;74.22
8703;BME280;9002;42.708;23.186;2023-08-08T05:42:06;95118.28;;;16.95;75.06
8703;BME280;9002;42.708;23.186;2023-08-08T05:44:37;95143.44;;;17.50;73.28
8703;BME280;9002;42.708;23.186;2023-08-08T05:47:05;95169.19;;;17.54;73.39
8703;BME280;9002;42.708;23.186;2023-08-08T05:49:32;95172.22;;;17.50;71.57
8703;BME280;9002;42.708;23.186;2023-08-08T05:51:59;95157.84;;;17.41;71.98
8703;BME280;9002;42.708;23.186;2023-08-08T05:54:27;95141.81;;;16.95;72.94
8703;BME280;9002;42.708;23.186;2023-08-08T05:56:54;95117.97;;;16.66;73.85
8703;BME280;9002;42.708;23.186;2023-08-08T05:59:21;95155.09;;;16.93;74.71
8703;BME280;9002;42.708;23.186;2023-08-08T06:01:48;95158.38;;;17.32;72.91
8703;BME280;9002;42.708;23.186;2023-08-08T06:04:41;95209.47;;;17.09;75.34
8703;BME280;9002;42.708;23.186;2023-08-08T06:07:20;95210.91;;;17.05;75.62
8703;BME280;9002;42.708;23.186;2023-08-08T06:09:49;95208.56;;;16.97;75.46
8703;BME280;9002;42.708;23.186;2023-08-08T06:12:15;95159.28;;;16.76;75.20
8703;BME280;9002;42.708;23.186;2023-08-08T06:14:42;95207.06;;;17.08;75.25
8703;BME280;9002;42.708;23.186;2023-08-08T06:17:09;95195.06;;;17.25;74.36
8703;BME280;9002;42.708;23.186;2023-08-08T06:19:36;95205.25;;;17.08;73.29
8703;BME280;9002;42.708;23.186;2023-08-08T06:55:50;95159.16;;;17.32;67.60
8703;BME280;9002;42.708;23.186;2023-08-08T06:58:18;95162.06;;;17.61;64.63
8703;BME280;9002;42.708;23.186;2023-08-08T07:01:02;95197.53;;;17.93;64.71
8703;BME280;9002;42.708;23.186;2023-08-08T07:03:30;95183.31;;;17.71;61.38
8703;BME280;9002;42.708;23.186;2023-08-08T07:05:57;95173.13;;;17.81;60.21
8703;BME280;9002;42.708;23.186;2023-08-08T07:08:24;95190.81;;;17.67;61.58
8703;BME280;9002;42.708;23.186;2023-08-08T07:10:52;95197.69;;;17.62;62.49
8703;BME280;9002;42.708;23.186;2023-08-08T07:13:41;95197.47;;;17.63;62.43
8703;BME280;9002;42.708;23.186;2023-08-08T07:16:31;95195.41;;;18.02;61.49
8703;BME280;9002;42.708;23.186;2023-08-08T07:19:00;95191.91;;;18.08;60.85
8703;BME280;9002;42.708;23.186;2023-08-08T07:21:27;95194.88;;;17.81;60.83
8703;BME280;9002;42.708;23.186;2023-08-08T07:23:54;95206.97;;;17.94;60.76
8703;BME280;9002;42.708;23.186;2023-08-08T07:26:24;95200.41;;;18.22;60.20
8703;BME280;9002;42.708;23.186;2023-08-08T07:28:51;95147.41;;;17.78;60.80
8703;BME280;9002;42.708;23.186;2023-08-08T07:31:27;95182.22;;;18.27;59.42
8703;BME280;9002;42.708;23.186;2023-08-08T07:33:54;95147.22;;;17.91;59.87
8703;BME280;9002;42.708;23.186;2023-08-08T07:36:26;95214.09;;;18.24;60.64
8703;BME280;9002;42.708;23.186;2023-08-08T07:38:57;95149.13;;;18.14;59.70
8703;BME280;9002;42.708;23.186;2023-08-08T07:41:58;95207.09;;;18.18;59.89
8703;BME280;9002;42.708;23.186;2023-08-08T07:45:19;95163.28;;;17.58;60.83
8703;BME280;9002;42.708;23.186;2023-08-08T07:47:58;95158.81;;;17.65;60.22
8703;BME280;9002;42.708;23.186;2023-08-08T07:50:26;95110.59;;;17.55;60.30
8703;BME280;9002;42.708;23.186;2023-08-08T07:52:53;95185.06;;;18.07;60.15
8703;BME280;9002;42.708;23.186;2023-08-08T07:55:20;95216.31;;;18.38;59.39
8703;BME280;9002;42.708;23.186;2023-08-08T07:57:48;95163.19;;;17.71;59.50
8703;BME280;9002;42.708;23.186;2023-08-08T08:00:16;95191.97;;;17.90;59.58
8703;BME280;9002;42.708;23.186;2023-08-08T08:19:46;95190.44;;;18.72;57.52
8703;BME280;9002;42.708;23.186;2023-08-08T08:22:28;95165.56;;;18.63;56.85
8703;BME280;9002;42.708;23.186;2023-08-08T08:24:55;95144.16;;;18.66;56.86
8703;BME280;9002;42.708;23.186;2023-08-08T08:27:22;95204.47;;;18.77;57.44
8703;BME280;9002;42.708;23.186;2023-08-08T08:29:52;95197.09;;;18.56;57.50
8703;BME280;9002;42.708;23.186;2023-08-08T08:32:18;95161.78;;;18.17;58.57
8703;BME280;9002;42.708;23.186;2023-08-08T08:34:47;95112.94;;;18.23;57.15
8703;BME280;9002;42.708;23.186;2023-08-08T08:37:42;95194.81;;;18.90;57.70
8703;BME280;9002;42.708;23.186;2023-08-08T08:40:09;95198.69;;;19.10;56.55
8703;BME280;9002;42.708;23.186;2023-08-08T08:42:37;95169.41;;;19.02;55.61
8703;BME280;9002;42.708;23.186;2023-08-08T08:45:19;95167.00;;;19.00;54.45
8703;BME280;9002;42.708;23.186;2023-08-08T08:51:15;95187.63;;;19.43;54.42
8703;BME280;9002;42.708;23.186;2023-08-08T08:53:42;95203.84;;;19.52;54.73
8703;BME280;9002;42.708;23.186;2023-08-08T08:56:11;95190.03;;;19.33;55.96
8703;BME280;9002;42.708;23.186;2023-08-08T08:58:39;95194.56;;;19.50;54.39
8703;BME280;9002;42.708;23.186;2023-08-08T09:01:07;95195.81;;;19.70;54.31
8703;BME280;9002;42.708;23.186;2023-08-08T09:03:34;95194.13;;;19.18;55.34
8703;BME280;9002;42.708;23.186;2023-08-08T09:08:37;95165.25;;;19.29;55.79
8703;BME280;9002;42.708;23.186;2023-08-08T09:11:04;95137.22;;;19.18;55.68
8703;BME280;9002;42.708;23.186;2023-08-08T09:13:36;95162.31;;;19.14;55.36
8703;BME280;9002;42.708;23.186;2023-08-08T09:20:14;95196.78;;;19.53;53.80
8703;BME280;9002;42.708;23.186;2023-08-08T09:22:41;95199.25;;;19.71;54.08
8703;BME280;9002;42.708;23.186;2023-08-08T09:25:09;95155.69;;;19.23;54.01
8703;BME280;9002;42.708;23.186;2023-08-08T09:27:36;95168.13;;;19.16;55.07
8703;BME280;9002;42.708;23.186;2023-08-08T09:30:08;95149.31;;;18.84;54.95
8703;BME280;9002;42.708;23.186;2023-08-08T09:32:36;95158.53;;;19.22;54.82
8703;BME280;9002;42.708;23.186;2023-08-08T09:35:23;95205.88;;;19.38;54.19
8703;BME280;9002;42.708;23.186;2023-08-08T09:37:53;95189.31;;;19.50;54.57
8703;BME280;9002;42.708;23.186;2023-08-08T09:40:22;95196.22;;;19.91;52.83
8703;BME280;9002;42.708;23.186;2023-08-08T09:42:51;95193.28;;;19.87;52.75
8703;BME280;9002;42.708;23.186;2023-08-08T09:49:20;95225.31;;;19.61;52.85
8703;BME280;9002;42.708;23.186;2023-08-08T09:51:48;95168.91;;;19.28;53.35
8703;BME280;9002;42.708;23.186;2023-08-08T09:54:15;95174.97;;;19.64;52.61
8703;BME280;9002;42.708;23.186;2023-08-08T09:56:44;95213.00;;;20.01;51.56
8703;BME280;9002;42.708;23.186;2023-08-08T09:59:23;95198.84;;;19.91;51.66
8703;BME280;9002;42.708;23.186;2023-08-08T10:01:51;95159.69;;;19.89;51.27
8703;BME280;9002;42.708;23.186;2023-08-08T10:06:58;95139.16;;;19.86;52.00
8703;BME280;9002;42.708;23.186;2023-08-08T10:09:24;95201.66;;;20.13;51.98
8703;BME280;9002;42.708;23.186;2023-08-08T10:11:54;95201.13;;;20.27;51.71
8703;BME280;9002;42.708;23.186;2023-08-08T10:14:29;95203.41;;;20.64;51.12
8703;BME280;9002;42.708;23.186;2023-08-08T10:16:56;95150.06;;;20.85;50.69
8703;BME280;9002;42.708;23.186;2023-08-08T10:19:51;95181.00;;;20.95;50.47
8703;BME280;9002;42.708;23.186;2023-08-08T10:22:52;95193.72;;;21.31;48.56
8703;BME280;9002;42.708;23.186;2023-08-08T10:25:27;95203.66;;;21.13;49.28
8703;BME280;9002;42.708;23.186;2023-08-08T10:28:11;95181.09;;;21.17;49.20
8703;BME280;9002;42.708;23.186;2023-08-08T10:30:43;95198.38;;;21.46;48.82
8703;BME280;9002;42.708;23.186;2023-08-08T10:33:18;95189.38;;;21.08;48.97
8703;BME280;9002;42.708;23.186;2023-08-08T10:35:57;95201.91;;;21.01;49.07
8703;BME280;9002;42.708;23.186;2023-08-08T10:38:25;95188.94;;;21.28;49.14
8703;BME280;9002;42.708;23.186;2023-08-08T10:40:58;95185.88;;;21.36;48.83
8703;BME280;9002;42.708;23.186;2023-08-08T10:43:47;95190.50;;;21.13;49.42
8703;BME280;9002;42.708;23.186;2023-08-08T10:46:23;95166.03;;;21.29;50.03
8703;BME280;9002;42.708;23.186;2023-08-08T10:49:12;95174.09;;;21.83;48.76
8703;BME280;9002;42.708;23.186;2023-08-08T10:51:43;95152.47;;;21.37;48.23
8703;BME280;9002;42.708;23.186;2023-08-08T10:54:14;95168.25;;;21.59;47.49
8703;BME280;9002;42.708;23.186;2023-08-08T10:56:48;95148.31;;;21.63;48.53
8703;BME280;9002;42.708;23.186;2023-08-08T11:03:44;95167.28;;;22.08;46.42
8703;BME280;9002;42.708;23.186;2023-08-08T11:06:14;95135.19;;;22.12;45.76
8703;BME280;9002;42.708;23.186;2023-08-08T11:08:41;95162.22;;;22.56;45.57
8703;BME280;9002;42.708;23.186;2023-08-08T11:11:08;95110.00;;;22.53;45.26
8703;BME280;9002;42.708;23.186;2023-08-08T11:13:35;95168.72;;;23.02;43.98
8703;BME280;9002;42.708;23.186;2023-08-08T11:16:02;95163.94;;;22.99;44.40
8703;BME280;9002;42.708;23.186;2023-08-08T11:18:29;95122.09;;;22.81;43.85
8703;BME280;9002;42.708;23.186;2023-08-08T11:20:57;95117.78;;;22.37;44.88
8703;BME280;9002;42.708;23.186;2023-08-08T11:23:24;95125.94;;;22.36;44.37
8703;BME280;9002;42.708;23.186;2023-08-08T11:26:17;95163.69;;;22.42;44.75
8703;BME280;9002;42.708;23.186;2023-08-08T11:32:15;95098.94;;;22.88;44.60
8703;BME280;9002;42.708;23.186;2023-08-08T11:35:02;95163.91;;;22.67;44.88
8703;BME280;9002;42.708;23.186;2023-08-08T11:37:38;95140.31;;;22.55;45.54
8703;BME280;9002;42.708;23.186;2023-08-08T11:40:26;95135.16;;;23.39;44.47
8703;BME280;9002;42.708;23.186;2023-08-08T11:42:54;95100.06;;;22.65;44.36
8703;BME280;9002;42.708;23.186;2023-08-08T11:45:23;95094.72;;;22.87;44.50
8703;BME280;9002;42.708;23.186;2023-08-08T11:53:06;95137.59;;;23.51;43.04
8703;BME280;9002;42.708;23.186;2023-08-08T11:55:33;95094.59;;;23.09;43.82
8703;BME280;9002;42.708;23.186;2023-08-08T11:58:02;95157.16;;;23.08;43.84
8703;BME280;9002;42.708;23.186;2023-08-08T12:00:31;95091.13;;;22.71;44.13
8703;BME280;9002;42.708;23.186;2023-08-08T12:03:01;95128.72;;;23.73;43.26
8703;BME280;9002;42.708;23.186;2023-08-08T12:05:29;95130.34;;;23.84;43.38
8703;BME280;9002;42.708;23.186;2023-08-08T12:07:58;95123.63;;;24.39;41.64
8703;BME280;9002;42.708;23.186;2023-08-08T12:10:26;95099.00;;;24.18;41.19
8703;BME280;9002;42.708;23.186;2023-08-08T12:12:55;95119.09;;;24.24;41.88
8703;BME280;9002;42.708;23.186;2023-08-08T12:15:24;95056.06;;;23.80;42.16
8703;BME280;9002;42.708;23.186;2023-08-08T12:17:54;95121.22;;;24.27;41.96
8703;BME280;9002;42.708;23.186;2023-08-08T12:20:21;95089.34;;;23.76;42.34
8703;BME280;9002;42.708;23.186;2023-08-08T12:22:48;95105.56;;;24.05;42.59
8703;BME280;9002;42.708;23.186;2023-08-08T12:25:15;95084.16;;;24.07;42.19
8703;BME280;9002;42.708;23.186;2023-08-08T12:27:43;95099.03;;;24.48;41.42
8703;BME280;9002;42.708;23.186;2023-08-08T12:30:10;95084.47;;;24.41;41.56
8703;BME280;9002;42.708;23.186;2023-08-08T12:32:37;95095.88;;;24.77;40.80
8703;BME280;9002;42.708;23.186;2023-08-08T12:35:04;95051.69;;;24.52;41.10
8703;BME280;9002;42.708;23.186;2023-08-08T12:37:31;95086.53;;;25.25;39.85
8703;BME280;9002;42.708;23.186;2023-08-08T12:39:58;95086.94;;;25.62;39.26
8703;BME280;9002;42.708;23.186;2023-08-08T12:42:25;95086.59;;;25.84;38.71
8703;BME280;9002;42.708;23.186;2023-08-08T12:44:54;95089.25;;;26.28;37.65
8703;BME280;9002;42.708;23.186;2023-08-08T12:47:21;95088.31;;;26.82;37.20
8703;BME280;9002;42.708;23.186;2023-08-08T12:49:47;95079.47;;;26.97;36.00
8703;BME280;9002;42.708;23.186;2023-08-08T12:52:14;95079.69;;;27.24;35.74
8703;BME280;9002;42.708;23.186;2023-08-08T12:54:41;95078.47;;;26.15;37.86
8703;BME280;9002;42.708;23.186;2023-08-08T12:57:08;95069.50;;;26.50;36.71
8703;BME280;9002;42.708;23.186;2023-08-08T12:59:34;95066.16;;;26.34;37.48
8703;BME280;9002;42.708;23.186;2023-08-08T13:02:03;95080.78;;;27.23;35.65
8703;BME280;9002;42.708;23.186;2023-08-08T13:04:30;95080.00;;;27.47;34.94
8703;BME280;9002;42.708;23.186;2023-08-08T13:06:57;95070.75;;;26.57;36.56
8703;BME280;9002;42.708;23.186;2023-08-08T13:09:24;95074.09;;;26.39;36.81
8703;BME280;9002;42.708;23.186;2023-08-08T13:11:51;95064.66;;;25.74;37.45
8703;BME280;9002;42.708;23.186;2023-08-08T13:14:17;95064.97;;;26.06;37.83
8703;BME280;9002;42.708;23.186;2023-08-08T13:16:44;95061.81;;;26.48;37.21
8703;BME280;9002;42.708;23.186;2023-08-08T13:19:12;95060.72;;;27.12;36.20
8703;BME280;9002;42.708;23.186;2023-08-08T13:21:40;95064.44;;;27.11;35.43
8703;BME280;9002;42.708;23.186;2023-08-08T13:24:07;95064.34;;;26.24;37.35
8703;BME280;9002;42.708;23.186;2023-08-08T13:26:35;95056.88;;;26.94;36.15
8703;BME280;9002;42.708;23.186;2023-08-08T13:29:02;95056.19;;;27.60;35.42
8703;BME280;9002;42.708;23.186;2023-08-08T13:31:29;95066.28;;;28.01;34.15
8703;BME280;9002;42.708;23.186;2023-08-08T13:33:56;95056.66;;;28.05;34.40
8703;BME280;9002;42.708;23.186;2023-08-08T13:36:24;95029.84;;;27.64;35.02
8703;BME280;9002;42.708;23.186;2023-08-08T13:38:50;95065.13;;;27.88;34.35
8703;BME280;9002;42.708;23.186;2023-08-08T13:41:17;95056.41;;;27.16;35.09
8703;BME280;9002;42.708;23.186;2023-08-08T13:43:44;95040.72;;;26.91;35.68
8703;BME280;9002;42.708;23.186;2023-08-08T13:46:11;95058.22;;;26.92;36.07
8703;BME280;9002;42.708;23.186;2023-08-08T13:48:37;95029.06;;;26.87;35.69
8703;BME280;9002;42.708;23.186;2023-08-08T13:51:04;95084.69;;;26.73;36.80
8703;BME280;9002;42.708;23.186;2023-08-08T13:53:32;94987.31;;;26.00;36.58
8703;BME280;9002;42.708;23.186;2023-08-08T13:55:59;95069.34;;;26.65;36.41
8703;BME280;9002;42.708;23.186;2023-08-08T13:58:27;95030.84;;;26.39;36.56
8703;BME280;9002;42.708;23.186;2023-08-08T14:00:55;95058.88;;;27.55;35.66
8703;BME280;9002;42.708;23.186;2023-08-08T14:03:22;95011.66;;;27.90;34.05
8703;BME280;9002;42.708;23.186;2023-08-08T14:05:49;95024.84;;;28.84;33.51
8703;BME280;9002;42.708;23.186;2023-08-08T14:08:17;95037.56;;;28.54;33.49
8703;BME280;9002;42.708;23.186;2023-08-08T14:10:46;95067.59;;;28.74;33.13
8703;BME280;9002;42.708;23.186;2023-08-08T14:13:12;95025.16;;;28.64;32.73
8703;BME280;9002;42.708;23.186;2023-08-08T14:15:39;95056.94;;;28.74;33.40
8703;BME280;9002;42.708;23.186;2023-08-08T14:18:06;95049.66;;;28.79;32.90
8703;BME280;9002;42.708;23.186;2023-08-08T14:20:33;95064.09;;;28.27;34.10
8703;BME280;9002;42.708;23.186;2023-08-08T14:23:00;95054.22;;;28.92;32.90
8703;BME280;9002;42.708;23.186;2023-08-08T14:25:26;95046.72;;;28.81;33.33
8703;BME280;9002;42.708;23.186;2023-08-08T14:27:56;95041.88;;;28.50;33.68
8703;BME280;9002;42.708;23.186;2023-08-08T14:30:24;95015.81;;;27.77;34.09
8703;BME280;9002;42.708;23.186;2023-08-08T14:32:52;95046.34;;;27.80;34.63
8703;BME280;9002;42.708;23.186;2023-08-08T14:35:19;95050.38;;;28.52;33.75
8703;BME280;9002;42.708;23.186;2023-08-08T14:37:46;95056.00;;;28.13;34.50
8703;BME280;9002;42.708;23.186;2023-08-08T14:40:13;95056.38;;;28.07;34.46
8703;BME280;9002;42.708;23.186;2023-08-08T14:42:40;95032.06;;;28.13;33.87
8703;BME280;9002;42.708;23.186;2023-08-08T14:45:09;95049.72;;;27.43;34.54
8703;BME280;9002;42.708;23.186;2023-08-08T14:47:36;95035.72;;;28.17;34.07
8703;BME280;9002;42.708;23.186;2023-08-08T14:50:03;95053.59;;;27.74;34.34
8703;BME280;9002;42.708;23.186;2023-08-08T14:52:30;95023.66;;;26.68;36.03
8703;BME280;9002;42.708;23.186;2023-08-08T14:54:57;94997.91;;;26.69;35.43
8703;BME280;9002;42.708;23.186;2023-08-08T14:57:24;95037.94;;;27.06;35.48
8703;BME280;9002;42.708;23.186;2023-08-08T14:59:50;95035.22;;;26.82;36.10
8703;BME280;9002;42.708;23.186;2023-08-08T15:02:19;95027.19;;;26.87;36.15
8703;BME280;9002;42.708;23.186;2023-08-08T15:04:46;95038.09;;;27.63;35.10
8703;BME280;9002;42.708;23.186;2023-08-08T15:07:12;95040.84;;;28.14;34.13
8703;BME280;9002;42.708;23.186;2023-08-08T15:09:39;95024.00;;;27.81;34.26
8703;BME280;9002;42.708;23.186;2023-08-08T15:12:07;95038.75;;;27.49;34.81
8703;BME280;9002;42.708;23.186;2023-08-08T15:14:34;95041.94;;;27.51;35.07
8703;BME280;9002;42.708;23.186;2023-08-08T15:17:01;95046.78;;;27.20;35.47
8703;BME280;9002;42.708;23.186;2023-08-08T15:19:30;95036.44;;;27.85;34.05
8703;BME280;9002;42.708;23.186;2023-08-08T15:21:56;95047.22;;;27.75;34.43
8703;BME280;9002;42.708;23.186;2023-08-08T15:24:23;95002.22;;;27.79;34.08
8703;BME280;9002;42.708;23.186;2023-08-08T15:26:50;95034.19;;;27.74;34.20
8703;BME280;9002;42.708;23.186;2023-08-08T15:29:17;95033.50;;;27.87;34.21
8703;BME280;9002;42.708;23.186;2023-08-08T15:31:44;95033.84;;;28.18;34.20
8703;BME280;9002;42.708;23.186;2023-08-08T15:34:11;95055.97;;;27.33;35.48
8703;BME280;9002;42.708;23.186;2023-08-08T15:36:39;95042.75;;;26.41;36.45
8703;BME280;9002;42.708;23.186;2023-08-08T15:39:06;95059.06;;;26.19;37.05
8703;BME280;9002;42.708;23.186;2023-08-08T15:41:33;95036.41;;;25.98;36.50
8703;BME280;9002;42.708;23.186;2023-08-08T15:44:01;95055.25;;;25.32;38.29
8703;BME280;9002;42.708;23.186;2023-08-08T15:46:28;95060.28;;;25.39;38.32
8703;BME280;9002;42.708;23.186;2023-08-08T15:48:55;95047.09;;;25.18;38.64
8703;BME280;9002;42.708;23.186;2023-08-08T15:51:21;95075.47;;;25.08;38.59
8703;BME280;9002;42.708;23.186;2023-08-08T15:53:49;95067.53;;;24.82;39.03
8703;BME280;9002;42.708;23.186;2023-08-08T15:56:16;95077.88;;;24.58;39.79
8703;BME280;9002;42.708;23.186;2023-08-08T15:58:43;95074.16;;;24.29;40.21
8703;BME280;9002;42.708;23.186;2023-08-08T16:01:10;95044.22;;;23.98;40.47
8703;BME280;9002;42.708;23.186;2023-08-08T16:03:36;95034.69;;;23.87;41.01
8703;BME280;9002;42.708;23.186;2023-08-08T16:06:03;95082.59;;;24.92;39.43
8703;BME280;9002;42.708;23.186;2023-08-08T16:08:30;95084.44;;;25.12;39.07
8703;BME280;9002;42.708;23.186;2023-08-08T16:10:58;95084.88;;;25.44;38.71
8703;BME280;9002;42.708;23.186;2023-08-08T16:13:25;95085.94;;;26.08;37.61
8703;BME280;9002;42.708;23.186;2023-08-08T16:15:52;95093.84;;;25.58;38.55
8703;BME280;9002;42.708;23.186;2023-08-08T16:18:18;95088.50;;;25.79;37.57
8703;BME280;9002;42.708;23.186;2023-08-08T16:20:45;95087.16;;;26.25;36.96
8703;BME280;9002;42.708;23.186;2023-08-08T16:23:12;95087.66;;;25.88;37.39
8703;BME280;9002;42.708;23.186;2023-08-08T16:25:39;95069.06;;;25.24;38.39
8703;BME280;9002;42.708;23.186;2023-08-08T16:28:07;95111.47;;;24.68;39.80
8703;BME280;9002;42.708;23.186;2023-08-08T16:30:34;95114.91;;;24.99;39.54
8703;BME280;9002;42.708;23.186;2023-08-08T16:33:01;95114.63;;;24.95;38.61
8703;BME280;9002;42.708;23.186;2023-08-08T16:35:28;95084.75;;;24.80;39.28
8703;BME280;9002;42.708;23.186;2023-08-08T16:37:55;95108.03;;;24.78;39.58
8703;BME280;9002;42.708;23.186;2023-08-08T16:40:22;95117.03;;;25.02;39.09
8703;BME280;9002;42.708;23.186;2023-08-08T16:42:49;95105.91;;;24.85;39.22
8703;BME280;9002;42.708;23.186;2023-08-08T16:45:18;95125.22;;;24.85;39.37
8703;BME280;9002;42.708;23.186;2023-08-08T16:47:45;95105.09;;;24.84;39.41
8703;BME280;9002;42.708;23.186;2023-08-08T16:50:11;95116.47;;;24.90;39.12
8703;BME280;9002;42.708;23.186;2023-08-08T16:52:38;95132.66;;;24.83;39.85
8703;BME280;9002;42.708;23.186;2023-08-08T16:55:06;95130.81;;;25.09;39.56
8703;BME280;9002;42.708;23.186;2023-08-08T16:57:36;95137.66;;;24.95;38.53
8703;BME280;9002;42.708;23.186;2023-08-08T17:00:03;95137.97;;;24.83;39.26
8703;BME280;9002;42.708;23.186;2023-08-08T17:02:31;95099.72;;;23.98;40.01
8703;BME280;9002;42.708;23.186;2023-08-08T17:04:59;95143.47;;;24.41;40.11
8703;BME280;9002;42.708;23.186;2023-08-08T17:07:25;95141.13;;;24.65;40.02
8703;BME280;9002;42.708;23.186;2023-08-08T17:09:54;95124.97;;;24.51;40.01
8703;BME280;9002;42.708;23.186;2023-08-08T17:12:21;95154.44;;;23.97;40.96
8703;BME280;9002;42.708;23.186;2023-08-08T17:14:48;95151.31;;;23.48;41.87
8703;BME280;9002;42.708;23.186;2023-08-08T17:17:15;95102.44;;;22.66;42.54
8703;BME280;9002;42.708;23.186;2023-08-08T17:19:44;95113.28;;;23.02;42.50
8703;BME280;9002;42.708;23.186;2023-08-08T17:22:11;95144.97;;;23.02;42.70
8703;BME280;9002;42.708;23.186;2023-08-08T17:24:38;95125.66;;;22.96;42.50
8703;BME280;9002;42.708;23.186;2023-08-08T17:27:05;95143.91;;;23.03;42.67
8703;BME280;9002;42.708;23.186;2023-08-08T17:29:32;95144.97;;;23.02;42.86
8703;BME280;9002;42.708;23.186;2023-08-08T17:31:59;95121.59;;;22.52;43.61
8703;BME280;9002;42.708;23.186;2023-08-08T17:34:26;95133.44;;;22.49;44.25
8703;BME280;9002;42.708;23.186;2023-08-08T17:36:54;95164.94;;;22.93;44.05
8703;BME280;9002;42.708;23.186;2023-08-08T17:39:21;95169.28;;;22.45;44.83
8703;BME280;9002;42.708;23.186;2023-08-08T17:45:02;95171.53;;;22.10;45.71
8703;BME280;9002;42.708;23.186;2023-08-08T17:47:30;95180.03;;;22.17;46.14
8703;BME280;9002;42.708;23.186;2023-08-08T17:49:56;95177.97;;;22.19;45.90
8703;BME280;9002;42.708;23.186;2023-08-08T17:52:25;95143.44;;;21.98;45.38
8703;BME280;9002;42.708;23.186;2023-08-08T17:54:52;95148.84;;;21.87;45.59
8703;BME280;9002;42.708;23.186;2023-08-08T17:57:19;95153.41;;;21.96;45.43
8703;BME280;9002;42.708;23.186;2023-08-08T17:59:47;95163.16;;;21.96;45.93
8703;BME280;9002;42.708;23.186;2023-08-08T18:02:16;95137.09;;;21.72;46.38
8703;BME280;9002;42.708;23.186;2023-08-08T18:04:43;95184.72;;;22.10;46.26
8703;BME280;9002;42.708;23.186;2023-08-08T18:07:10;95157.06;;;21.68;46.54
8703;BME280;9002;42.708;23.186;2023-08-08T18:09:39;95165.03;;;21.73;46.68
8703;BME280;9002;42.708;23.186;2023-08-08T18:12:46;95202.78;;;21.79;47.16
8703;BME280;9002;42.708;23.186;2023-08-08T18:15:27;95210.59;;;21.74;47.29
8703;BME280;9002;42.708;23.186;2023-08-08T18:18:07;95224.59;;;21.58;48.21
8703;BME280;9002;42.708;23.186;2023-08-08T18:21:09;95199.47;;;21.50;48.67
8703;BME280;9002;42.708;23.186;2023-08-08T18:23:36;95189.25;;;21.32;48.43
8703;BME280;9002;42.708;23.186;2023-08-08T18:26:05;95223.69;;;21.30;49.48
8703;BME280;9002;42.708;23.186;2023-08-08T18:28:44;95231.78;;;21.62;48.48
8703;BME280;9002;42.708;23.186;2023-08-08T18:31:14;95205.16;;;21.08;49.69
8703;BME280;9002;42.708;23.186;2023-08-08T18:33:42;95239.63;;;21.40;48.84
8703;BME280;9002;42.708;23.186;2023-08-08T18:36:09;95222.22;;;21.06;49.47
8703;BME280;9002;42.708;23.186;2023-08-08T18:42:23;95244.28;;;21.33;49.84
8703;BME280;9002;42.708;23.186;2023-08-08T18:44:50;95179.72;;;20.81;50.09
8703;BME280;9002;42.708;23.186;2023-08-08T18:47:17;95228.69;;;20.98;50.79
8703;BME280;9002;42.708;23.186;2023-08-08T18:49:53;95251.81;;;20.80;51.15
8703;BME280;9002;42.708;23.186;2023-08-08T18:52:20;95257.66;;;21.15;50.43
8703;BME280;9002;42.708;23.186;2023-08-08T18:54:47;95252.06;;;21.12;50.91
8703;BME280;9002;42.708;23.186;2023-08-08T18:57:14;95218.84;;;20.60;51.25
8703;BME280;9002;42.708;23.186;2023-08-08T18:59:43;95264.78;;;20.86;51.75
8703;BME280;9002;42.708;23.186;2023-08-08T19:02:09;95265.91;;;20.90;51.79
8703;BME280;9002;42.708;23.186;2023-08-08T19:04:40;95238.19;;;20.54;52.67
8703;BME280;9002;42.708;23.186;2023-08-08T19:07:17;95266.47;;;20.47;52.79
8703;BME280;9002;42.708;23.186;2023-08-08T19:14:02;95268.16;;;20.53;53.75
8703;BME280;9002;42.708;23.186;2023-08-08T19:16:30;95266.47;;;20.47;53.77